createdAt,value
2019-01-24T00:02:10.700Z,100096.30
2019-01-24T00:04:44.266Z,100098.87
2019-01-24T00:07:14.656Z,100093.72
2019-01-24T00:09:45.017Z,100105.33
2019-01-24T00:12:17.420Z,100107.45
2019-01-24T00:14:47.778Z,100106.56
2019-01-24T00:17:18.203Z,100107.93
2019-01-24T00:19:48.584Z,100109.69
2019-01-24T00:22:20.924Z,100123.89
2019-01-24T00:24:51.369Z,100117.00
2019-01-24T00:27:21.709Z,100120.03
2019-01-24T00:29:52.120Z,100128.65
2019-01-24T00:32:22.486Z,100136.02
2019-01-24T00:34:53.579Z,100127.02
2019-01-24T00:37:23.977Z,100135.16
2019-01-24T00:39:54.685Z,100137.77
2019-01-24T00:42:25.038Z,100145.11
2019-01-24T00:44:56.232Z,100139.89
2019-01-24T00:47:28.593Z,100145.95
2019-01-24T00:49:59.054Z,100152.91
2019-01-24T00:52:29.481Z,100146.84
2019-01-24T00:54:59.815Z,100145.96
2019-01-24T00:57:30.290Z,100143.34
2019-01-24T01:00:00.783Z,100150.72
2019-01-24T01:02:31.262Z,100155.02
2019-01-24T01:05:01.652Z,100155.84
2019-01-24T01:07:32.512Z,100157.22
2019-01-24T01:10:03.035Z,100165.40
2019-01-24T01:12:33.591Z,100166.25
2019-01-24T01:15:06.018Z,100168.86
2019-01-24T01:17:40.130Z,100168.41
2019-01-24T01:20:13.442Z,100173.64
2019-01-24T01:22:44.153Z,100182.28
2019-01-24T01:25:14.738Z,100184.06
2019-01-24T01:27:45.688Z,100181.45
2019-01-24T01:30:18.348Z,100183.18
2019-01-24T01:32:48.853Z,100179.33
2019-01-24T01:35:19.281Z,100184.47
2019-01-24T01:37:50.831Z,100187.87
2019-01-24T01:40:24.463Z,100184.90
2019-01-24T01:42:57.905Z,100188.38
2019-01-24T01:45:29.884Z,100193.97
2019-01-24T01:48:00.684Z,100203.91
2019-01-24T01:50:31.077Z,100207.38
2019-01-24T01:53:01.798Z,100196.64
2019-01-24T01:55:34.425Z,100202.24
2019-01-24T01:58:12.955Z,100204.44
2019-01-24T02:00:45.747Z,100201.84
2019-01-24T02:03:16.994Z,100208.39
2019-01-24T02:05:49.027Z,100214.03
2019-01-24T02:08:22.265Z,100212.77
2019-01-24T02:10:55.376Z,100219.63
2019-01-24T02:13:26.582Z,100217.91
2019-01-24T02:15:57.033Z,100215.72
2019-01-24T02:18:27.421Z,100208.42
2019-01-24T02:20:57.884Z,100210.55
2019-01-24T02:23:28.342Z,100206.21
2019-01-24T02:25:58.755Z,100217.41
2019-01-24T02:28:29.328Z,100215.26
2019-01-24T02:30:59.726Z,100219.11
2019-01-24T02:33:30.373Z,100217.84
2019-01-24T02:36:00.751Z,100214.02
2019-01-24T02:38:31.334Z,100223.50
2019-01-24T02:41:02.248Z,100223.94
2019-01-24T02:43:32.710Z,100225.30
2019-01-24T02:46:03.094Z,100229.67
2019-01-24T02:48:33.520Z,100229.23
2019-01-24T02:51:03.948Z,100234.41
2019-01-24T02:53:34.573Z,100231.77
2019-01-24T02:56:04.734Z,100236.04
2019-01-24T02:58:37.336Z,100241.24
2019-01-24T03:01:07.680Z,100242.16
2019-01-24T03:03:38.631Z,100247.34
2019-01-24T03:06:09.711Z,100247.30
2019-01-24T03:08:40.080Z,100243.87
2019-01-24T03:11:12.464Z,100241.77
2019-01-24T03:13:42.980Z,100243.00
2019-01-24T03:16:13.408Z,100244.72
2019-01-24T03:18:45.883Z,100234.41
2019-01-24T03:21:16.347Z,100237.05
2019-01-24T03:23:46.819Z,100247.83
2019-01-24T03:26:17.197Z,100235.77
2019-01-24T03:28:47.650Z,100240.89
2019-01-24T03:31:18.079Z,100235.75
2019-01-24T03:33:48.469Z,100233.17
2019-01-24T03:36:18.846Z,100234.47
2019-01-24T03:38:49.323Z,100238.78
2019-01-24T03:41:19.722Z,100239.61
2019-01-24T03:43:50.500Z,100242.67
2019-01-24T03:46:20.866Z,100244.44
2019-01-24T03:48:51.294Z,100247.46
2019-01-24T03:51:21.666Z,100253.03
2019-01-24T03:53:58.524Z,100250.86
2019-01-24T03:56:28.992Z,100255.17
2019-01-24T03:58:59.398Z,100255.16
2019-01-24T04:01:29.856Z,100256.92
2019-01-24T04:04:00.261Z,100253.08
2019-01-24T04:06:30.639Z,100253.97
2019-01-24T04:09:00.983Z,100256.55
2019-01-24T04:11:31.452Z,100257.42
2019-01-24T04:14:01.851Z,100263.87
2019-01-24T04:16:32.344Z,100265.53
2019-01-24T04:19:02.744Z,100265.53
2019-01-24T04:21:33.127Z,100262.92
2019-01-24T04:24:05.610Z,100268.08
2019-01-24T04:26:39.173Z,100265.94
2019-01-24T04:29:10.495Z,100268.51
2019-01-24T04:31:40.812Z,100270.23
2019-01-24T04:34:11.169Z,100271.53
2019-01-24T04:36:44.333Z,100276.70
2019-01-24T04:39:14.861Z,100277.56
2019-01-24T04:41:48.770Z,100285.30
2019-01-24T04:44:19.156Z,100290.48
2019-01-24T04:46:49.516Z,100297.77
2019-01-24T04:49:22.744Z,100298.64
2019-01-24T04:51:53.360Z,100292.22
2019-01-24T04:54:41.142Z,100291.77
2019-01-24T04:57:13.858Z,100297.80
2019-01-24T04:59:44.247Z,100296.98
2019-01-24T05:02:16.652Z,100299.55
2019-01-24T05:04:47.088Z,100306.85
2019-01-24T05:07:17.784Z,100306.00
2019-01-24T05:09:48.242Z,100305.97
2019-01-24T05:12:18.776Z,100308.98
2019-01-24T05:14:49.161Z,100315.86
2019-01-24T05:17:21.278Z,100321.48
2019-01-24T05:19:52.266Z,100320.62
2019-01-24T05:22:22.908Z,100325.41
2019-01-24T05:24:53.261Z,100317.27
2019-01-24T05:27:23.725Z,100315.59
2019-01-24T05:29:54.166Z,100319.06
2019-01-24T05:32:24.633Z,100327.25
2019-01-24T05:34:55.025Z,100324.68
2019-01-24T05:37:27.619Z,100328.98
2019-01-24T05:39:58.072Z,100337.17
2019-01-24T05:42:28.834Z,100330.66
2019-01-24T05:44:59.228Z,100338.89
2019-01-24T05:47:31.490Z,100340.19
2019-01-24T05:50:06.240Z,100341.05
2019-01-24T05:52:37.589Z,100330.72
2019-01-24T05:55:08.992Z,100330.28
2019-01-24T05:57:45.434Z,100332.88
2019-01-24T06:00:51.474Z,100326.79
2019-01-24T06:03:22.032Z,100329.81
2019-01-24T06:05:55.916Z,100325.45
2019-01-24T06:08:26.462Z,100319.47
2019-01-24T06:10:56.862Z,100321.19
2019-01-24T06:13:27.434Z,100325.02
2019-01-24T06:15:57.921Z,100325.08
2019-01-24T06:18:28.530Z,100335.40
2019-01-24T06:20:58.865Z,100336.66
2019-01-24T06:23:29.537Z,100331.09
2019-01-24T06:26:02.926Z,100329.84
2019-01-24T06:28:33.621Z,100336.30
2019-01-24T06:31:04.186Z,100332.03
2019-01-24T06:33:36.623Z,100338.50
2019-01-24T06:36:09.912Z,100349.71
2019-01-24T06:38:40.380Z,100345.39
2019-01-24T06:41:10.901Z,100349.71
2019-01-24T06:43:41.585Z,100357.84
2019-01-24T06:46:11.982Z,100360.00
2019-01-24T06:48:42.347Z,100362.17
2019-01-24T06:51:15.749Z,100366.05
2019-01-24T06:53:46.140Z,100376.83
2019-01-24T06:56:16.526Z,100382.40
2019-01-24T06:58:46.889Z,100381.98
2019-01-24T07:01:17.485Z,100379.38
2019-01-24T07:03:48.111Z,100391.93
2019-01-24T07:06:18.573Z,100391.48
2019-01-24T07:08:49.321Z,100394.95
2019-01-24T07:11:19.746Z,100404.42
2019-01-24T07:13:50.076Z,100407.02
2019-01-24T07:16:20.476Z,100408.30
2019-01-24T07:18:50.870Z,100414.33
2019-01-24T07:21:24.456Z,100411.31
2019-01-24T07:23:55.221Z,100422.95
2019-01-24T07:26:25.656Z,100430.25
2019-01-24T07:28:56.032Z,100430.24
2019-01-24T07:31:28.225Z,100434.98
2019-01-24T07:33:58.755Z,100444.92
2019-01-24T07:36:32.130Z,100447.52
2019-01-24T07:39:07.790Z,100452.22
2019-01-24T07:41:38.290Z,100452.67
2019-01-24T07:44:09.697Z,100463.45
2019-01-24T07:46:40.214Z,100463.86
2019-01-24T07:49:11.097Z,100465.15
2019-01-24T07:51:41.420Z,100464.74
2019-01-24T07:54:13.991Z,100469.48
2019-01-24T07:56:44.490Z,100473.38
2019-01-24T07:59:17.217Z,100478.97
2019-01-24T08:01:47.617Z,100484.57
2019-01-24T08:04:18.268Z,100492.33
2019-01-24T08:06:52.112Z,100493.19
2019-01-24T08:09:22.669Z,100491.05
2019-01-24T08:11:53.156Z,100496.69
2019-01-24T08:14:23.954Z,100493.69
2019-01-24T08:16:54.343Z,100498.86
2019-01-24T08:19:25.073Z,100501.85
2019-01-24T08:21:57.285Z,100501.89
2019-01-24T08:24:27.975Z,100504.89
2019-01-24T08:26:58.333Z,100511.36
2019-01-24T08:29:28.698Z,100507.05
2019-01-24T08:31:59.430Z,100519.56
2019-01-24T08:34:33.027Z,100526.86
2019-01-24T08:37:06.462Z,100519.55
2019-01-24T08:39:37.153Z,100525.15
2019-01-24T08:42:09.580Z,100523.45
2019-01-24T08:44:40.302Z,100522.56
2019-01-24T08:47:11.154Z,100519.97
2019-01-24T08:49:41.502Z,100523.02
2019-01-24T08:52:11.940Z,100521.27
2019-01-24T08:54:42.681Z,100527.30
2019-01-24T08:57:13.156Z,100526.89
2019-01-24T08:59:43.661Z,100516.55
2019-01-24T09:02:14.011Z,100519.53
2019-01-24T09:04:44.475Z,100520.83
2019-01-24T09:07:14.841Z,100526.86
2019-01-24T09:09:45.288Z,100529.45
2019-01-24T09:12:17.232Z,100522.53
2019-01-24T09:14:48.437Z,100520.83
2019-01-24T09:17:19.720Z,100517.80
2019-01-24T09:19:50.271Z,100519.09
2019-01-24T09:22:20.687Z,100519.06
2019-01-24T09:24:51.685Z,100521.20
2019-01-24T09:27:22.112Z,100509.13
2019-01-24T09:29:54.518Z,100522.05
2019-01-24T09:32:24.951Z,100516.00
2019-01-24T09:34:58.544Z,100513.00
2019-01-24T09:37:29.406Z,100518.59
2019-01-24T09:40:01.999Z,100515.13
2019-01-24T09:42:32.516Z,100518.19
2019-01-24T09:45:03.437Z,100513.42
2019-01-24T09:47:34.121Z,100520.77
2019-01-24T09:50:04.805Z,100522.06
2019-01-24T09:52:35.209Z,100522.46
2019-01-24T09:55:05.881Z,100528.91
2019-01-24T09:57:37.610Z,100528.10
2019-01-24T10:00:12.757Z,100531.14
2019-01-24T10:02:46.170Z,100541.06
2019-01-24T10:05:18.592Z,100547.11
2019-01-24T10:07:49.000Z,100547.09
2019-01-24T10:10:21.012Z,100544.06
2019-01-24T10:12:52.022Z,100556.13
2019-01-24T10:15:22.454Z,100560.45
2019-01-24T10:17:53.532Z,100562.18
2019-01-24T10:20:25.677Z,100566.53
2019-01-24T10:22:57.073Z,100567.83
2019-01-24T10:25:32.949Z,100566.53
2019-01-24T10:28:06.226Z,100570.39
2019-01-24T10:30:42.807Z,100572.98
2019-01-24T10:33:10.221Z,100576.02
2019-01-24T10:35:40.643Z,100561.78
2019-01-24T10:38:11.338Z,100567.38
2019-01-24T10:40:42.281Z,100569.53
2019-01-24T10:43:12.723Z,100569.94
2019-01-24T10:45:43.492Z,100565.66
2019-01-24T10:48:14.007Z,100560.91
2019-01-24T10:50:44.492Z,100560.92
2019-01-24T10:53:14.941Z,100565.23
2019-01-24T10:55:46.373Z,100566.52
2019-01-24T10:58:17.061Z,100574.30
2019-01-24T11:00:47.917Z,100570.40
2019-01-24T11:03:21.245Z,100565.64
2019-01-24T11:05:53.995Z,100572.55
2019-01-24T11:08:24.466Z,100572.13
2019-01-24T11:10:54.949Z,100569.95
2019-01-24T11:13:25.380Z,100564.38
2019-01-24T11:15:58.617Z,100564.38
2019-01-24T11:18:31.835Z,100565.22
2019-01-24T11:21:02.233Z,100570.84
2019-01-24T11:23:32.773Z,100569.13
2019-01-24T11:26:03.114Z,100568.69
2019-01-24T11:28:33.615Z,100570.84
2019-01-24T11:31:04.203Z,100571.70
2019-01-24T11:33:36.876Z,100582.47
2019-01-24T11:36:07.260Z,100587.63
2019-01-24T11:38:37.697Z,100584.62
2019-01-24T11:41:08.200Z,100581.20
2019-01-24T11:43:38.660Z,100580.31
2019-01-24T11:46:09.493Z,100584.19
2019-01-24T11:48:39.950Z,100585.94
2019-01-24T11:51:13.464Z,100590.22
2019-01-24T11:53:44.029Z,100579.86
2019-01-24T11:56:14.473Z,100578.99
2019-01-24T11:58:45.089Z,100583.75
2019-01-24T12:01:15.463Z,100575.59
2019-01-24T12:03:47.392Z,100576.41
2019-01-24T12:06:17.747Z,100583.34
2019-01-24T12:08:48.701Z,100577.72
2019-01-24T12:11:21.827Z,100575.59
2019-01-24T12:13:52.311Z,100583.75
2019-01-24T12:16:22.784Z,100575.95
2019-01-24T12:18:53.254Z,100569.94
2019-01-24T12:21:26.848Z,100570.36
2019-01-24T12:24:00.401Z,100572.50
2019-01-24T12:26:34.030Z,100572.91
2019-01-24T12:29:04.438Z,100578.45
2019-01-24T12:31:34.853Z,100581.42
2019-01-24T12:34:05.243Z,100574.06
2019-01-24T12:36:35.727Z,100564.05
2019-01-24T12:39:12.199Z,100572.21
2019-01-24T12:41:42.684Z,100571.30
2019-01-24T12:44:13.394Z,100582.05
2019-01-24T12:46:43.719Z,100582.06
2019-01-24T12:49:14.065Z,100579.52
2019-01-24T12:51:47.027Z,100582.98
2019-01-24T12:54:17.395Z,100579.54
2019-01-24T12:56:47.810Z,100581.34
2019-01-24T12:59:18.389Z,100578.77
2019-01-24T13:01:48.780Z,100566.67
2019-01-24T13:04:22.017Z,100570.59
2019-01-24T13:06:52.460Z,100579.24
2019-01-24T13:09:23.114Z,100569.34
2019-01-24T13:11:54.072Z,100564.16
2019-01-24T13:14:24.406Z,100569.83
2019-01-24T13:16:54.806Z,100568.10
2019-01-24T13:19:25.429Z,100558.63
2019-01-24T13:21:55.987Z,100558.22
2019-01-24T13:24:29.564Z,100561.28
2019-01-24T13:27:00.689Z,100562.63
2019-01-24T13:29:58.365Z,100566.91
2019-01-24T13:32:31.277Z,100580.27
2019-01-24T13:35:01.730Z,100586.77
2019-01-24T13:37:34.274Z,100589.77
2019-01-24T13:40:05.146Z,100593.20
2019-01-24T13:42:35.748Z,100586.73
2019-01-24T13:45:07.991Z,100588.03
2019-01-24T13:47:38.481Z,100594.05
2019-01-24T13:50:11.568Z,100591.04
2019-01-24T13:52:42.273Z,100600.56
2019-01-24T13:55:12.856Z,100597.95
2019-01-24T13:57:47.805Z,100599.70
2019-01-24T14:00:25.068Z,100604.02
2019-01-24T14:03:02.047Z,100606.19
2019-01-24T14:05:33.011Z,100610.91
2019-01-24T14:08:08.081Z,100608.75
2019-01-24T14:10:40.178Z,100610.05
2019-01-24T14:13:10.540Z,100603.58
2019-01-24T14:15:40.962Z,100604.90
2019-01-24T14:18:11.501Z,100611.78
2019-01-24T14:20:41.861Z,100607.02
2019-01-24T14:23:12.272Z,100603.14
2019-01-24T14:25:42.656Z,100610.45
2019-01-24T14:28:13.073Z,100606.55
2019-01-24T14:30:43.459Z,100607.02
2019-01-24T14:33:13.910Z,100605.28
2019-01-24T14:35:46.624Z,100613.06
2019-01-24T14:38:17.300Z,100614.80
2019-01-24T14:40:49.195Z,100612.66
2019-01-24T14:43:20.028Z,100621.25
2019-01-24T14:45:50.634Z,100627.73
2019-01-24T14:48:21.052Z,100621.26
2019-01-24T14:50:51.528Z,100625.98
2019-01-24T14:53:21.973Z,100622.55
2019-01-24T14:55:52.603Z,100619.97
2019-01-24T14:58:23.147Z,100632.06
2019-01-24T15:01:29.705Z,100627.72
2019-01-24T15:04:00.231Z,100634.19
2019-01-24T15:06:33.812Z,100630.31
2019-01-24T15:09:11.054Z,100631.62
2019-01-24T15:11:43.740Z,100632.92
2019-01-24T15:14:14.413Z,100632.92
2019-01-24T15:16:44.838Z,100633.80
2019-01-24T15:19:15.570Z,100635.93
2019-01-24T15:21:46.671Z,100644.98
2019-01-24T15:24:17.535Z,100644.11
2019-01-24T15:26:51.077Z,100653.20
2019-01-24T15:29:22.470Z,100657.05
2019-01-24T15:31:53.919Z,100651.45
2019-01-24T15:34:24.392Z,100657.50
2019-01-24T15:36:57.104Z,100657.92
2019-01-24T15:39:27.450Z,100663.09
2019-01-24T15:42:01.247Z,100665.26
2019-01-24T15:44:31.605Z,100671.27
2019-01-24T15:47:02.113Z,100674.27
2019-01-24T15:49:32.766Z,100673.84
2019-01-24T15:52:06.168Z,100671.69
2019-01-24T15:54:40.211Z,100683.77
2019-01-24T15:57:10.729Z,100684.19
2019-01-24T15:59:41.119Z,100684.66
2019-01-24T16:02:12.245Z,100685.48
2019-01-24T16:04:42.873Z,100687.20
2019-01-24T16:07:15.870Z,100685.49
2019-01-24T16:09:46.340Z,100683.77
2019-01-24T16:12:19.853Z,100688.94
2019-01-24T16:14:50.214Z,100692.38
2019-01-24T16:17:20.467Z,100698.84
2019-01-24T16:19:52.810Z,100700.58
2019-01-24T16:22:26.485Z,100694.11
2019-01-24T16:25:04.255Z,100698.41
2019-01-24T16:27:37.501Z,100697.11
2019-01-24T16:30:10.519Z,100706.98
2019-01-24T16:32:43.011Z,100706.17
2019-01-24T16:35:17.003Z,100713.90
2019-01-24T16:37:47.435Z,100717.77
2019-01-24T16:40:18.924Z,100711.27
2019-01-24T16:42:49.486Z,100718.15
2019-01-24T16:45:21.584Z,100722.85
2019-01-24T16:47:54.245Z,100725.02
2019-01-24T16:50:24.997Z,100716.38
2019-01-24T16:52:56.789Z,100715.98
2019-01-24T16:55:27.581Z,100712.52
2019-01-24T16:57:58.137Z,100710.33
2019-01-24T17:00:31.342Z,100712.50
2019-01-24T17:03:02.763Z,100715.97
2019-01-24T17:05:33.310Z,100713.81
2019-01-24T17:08:04.098Z,100712.54
2019-01-24T17:10:36.380Z,100710.00
2019-01-24T17:13:07.839Z,100708.72
2019-01-24T17:15:38.399Z,100719.50
2019-01-24T17:18:09.060Z,100723.39
2019-01-24T17:20:39.551Z,100733.31
2019-01-24T17:23:10.105Z,100731.20
2019-01-24T17:25:40.906Z,100737.63
2019-01-24T17:28:13.381Z,100741.09
2019-01-24T17:30:46.810Z,100743.27
2019-01-24T17:33:20.193Z,100748.02
2019-01-24T17:35:50.798Z,100741.10
2019-01-24T17:38:23.851Z,100741.56
2019-01-24T17:40:53.396Z,100732.06
2019-01-24T17:43:23.814Z,100722.59
2019-01-24T17:45:54.223Z,100728.63
2019-01-24T17:48:27.518Z,100736.39
2019-01-24T17:50:58.277Z,100735.94
2019-01-24T17:53:28.721Z,100744.57
2019-01-24T17:55:59.184Z,100744.56
2019-01-24T17:58:29.709Z,100746.74
2019-01-24T18:01:00.291Z,100750.61
2019-01-24T18:03:32.541Z,100752.31
2019-01-24T18:06:03.009Z,100755.73
2019-01-24T18:08:39.727Z,100763.48
2019-01-24T18:11:10.473Z,100768.23
2019-01-24T18:13:42.731Z,100770.81
2019-01-24T18:16:14.096Z,100772.53
2019-01-24T18:18:44.856Z,100770.81
2019-01-24T18:21:15.254Z,100771.69
2019-01-24T18:23:46.050Z,100780.28
2019-01-24T18:26:16.519Z,100783.33
2019-01-24T18:28:46.985Z,100792.81
2019-01-24T18:31:17.446Z,100795.41
2019-01-24T18:33:48.377Z,100804.04
2019-01-24T18:36:18.825Z,100801.45
2019-01-24T18:38:49.612Z,100804.02
2019-01-24T18:41:20.678Z,100800.99
2019-01-24T18:43:51.046Z,100809.63
2019-01-24T18:46:21.655Z,100804.04
2019-01-24T18:48:52.401Z,100810.52
2019-01-24T18:51:23.585Z,100811.81
2019-01-24T18:53:54.009Z,100803.63
2019-01-24T18:56:24.418Z,100814.81
2019-01-24T18:58:54.894Z,100816.11
2019-01-24T19:01:25.393Z,100813.10
2019-01-24T19:03:55.747Z,100820.00
2019-01-24T19:06:27.150Z,100826.92
2019-01-24T19:08:57.660Z,100821.35
2019-01-24T19:11:28.183Z,100819.59
2019-01-24T19:13:59.981Z,100825.63
2019-01-24T19:16:30.574Z,100822.17
2019-01-24T19:19:01.824Z,100823.05
2019-01-24T19:21:32.178Z,100827.36
2019-01-24T19:24:02.650Z,100824.78
2019-01-24T19:26:33.006Z,100819.22
2019-01-24T19:29:03.658Z,100826.97
2019-01-24T19:31:36.856Z,100829.16
2019-01-24T19:34:07.302Z,100831.33
2019-01-24T19:36:41.915Z,100836.92
2019-01-24T19:39:12.302Z,100835.20
2019-01-24T19:41:42.903Z,100840.79
2019-01-24T19:44:16.261Z,100842.52
2019-01-24T19:46:46.742Z,100840.79
2019-01-24T19:49:18.658Z,100841.67
2019-01-24T19:51:49.830Z,100842.11
2019-01-24T19:54:20.245Z,100839.50
2019-01-24T19:56:50.647Z,100843.38
2019-01-24T19:59:21.136Z,100847.69
2019-01-24T20:01:51.631Z,100841.22
2019-01-24T20:04:22.057Z,100839.52
2019-01-24T20:06:52.554Z,100834.33
2019-01-24T20:09:23.499Z,100843.36
2019-01-24T20:11:54.021Z,100845.06
2019-01-24T20:14:24.439Z,100840.75
2019-01-24T20:16:54.910Z,100841.58
2019-01-24T20:19:25.506Z,100842.45
2019-01-24T20:21:56.048Z,100840.27
2019-01-24T20:24:26.366Z,100841.14
2019-01-24T20:26:56.968Z,100840.28
2019-01-24T20:29:27.439Z,100850.64
2019-01-24T20:31:57.895Z,100847.22
2019-01-24T20:34:28.337Z,100851.10
2019-01-24T20:36:58.818Z,100846.80
2019-01-24T20:39:29.263Z,100842.08
2019-01-24T20:42:00.071Z,100838.60
2019-01-24T20:44:30.503Z,100846.78
2019-01-24T20:47:01.156Z,100844.19
2019-01-24T20:49:31.713Z,100841.61
2019-01-24T20:52:02.213Z,100854.53
2019-01-24T20:54:32.712Z,100857.59
2019-01-24T20:57:03.129Z,100856.70
2019-01-24T20:59:33.578Z,100866.64
2019-01-24T21:02:04.095Z,100865.75
2019-01-24T21:04:34.613Z,100861.84
2019-01-24T21:07:05.070Z,100858.39
2019-01-24T21:09:37.943Z,100867.02
2019-01-24T21:12:09.947Z,100862.69
2019-01-24T21:14:40.531Z,100859.27
2019-01-24T21:17:11.025Z,100859.27
2019-01-24T21:19:41.575Z,100854.09
2019-01-24T21:22:12.220Z,100854.50
2019-01-24T21:24:42.866Z,100858.38
2019-01-24T21:27:15.414Z,100855.78
2019-01-24T21:29:45.814Z,100857.48
2019-01-24T21:32:17.527Z,100860.48
2019-01-24T21:34:47.953Z,100858.36
2019-01-24T21:37:18.424Z,100860.95
2019-01-24T21:39:48.847Z,100857.50
2019-01-24T21:42:19.222Z,100868.31
2019-01-24T21:44:49.719Z,100871.32
2019-01-24T21:47:20.097Z,100866.55
2019-01-24T21:49:51.419Z,100872.59
2019-01-24T21:52:21.809Z,100870.92
2019-01-24T21:54:52.782Z,100873.49
2019-01-24T21:57:23.279Z,100871.31
2019-01-24T21:59:53.733Z,100866.12
2019-01-24T22:02:24.327Z,100862.25
2019-01-24T22:04:54.847Z,100864.41
2019-01-24T22:07:25.232Z,100869.16
2019-01-24T22:09:58.692Z,100866.14
2019-01-24T22:12:29.115Z,100867.44
2019-01-24T22:14:59.606Z,100873.48
2019-01-24T22:17:30.264Z,100871.32
2019-01-24T22:20:03.254Z,100879.50
2019-01-24T22:22:33.686Z,100874.77
2019-01-24T22:25:05.457Z,100876.89
2019-01-24T22:27:35.860Z,100874.31
2019-01-24T22:30:08.682Z,100876.48
2019-01-24T22:32:39.212Z,100876.48
2019-01-24T22:35:09.691Z,100883.84
2019-01-24T22:37:40.149Z,100886.45
2019-01-24T22:40:11.363Z,100886.43
2019-01-24T22:42:43.113Z,100889.00
2019-01-24T22:45:16.721Z,100886.42
2019-01-24T22:47:47.482Z,100889.42
2019-01-24T22:50:19.481Z,100898.49
2019-01-24T22:52:49.930Z,100902.79
2019-01-24T22:55:20.366Z,100903.24
2019-01-24T22:57:50.914Z,100898.06
2019-01-24T23:00:54.693Z,100897.18
2019-01-24T23:03:48.717Z,100895.89
2019-01-24T23:06:19.485Z,100899.80
2019-01-24T23:08:50.215Z,100895.09
2019-01-24T23:11:20.598Z,100899.81
2019-01-24T23:13:51.092Z,100902.86
2019-01-24T23:16:21.485Z,100912.75
2019-01-24T23:18:51.930Z,100913.60
2019-01-24T23:21:22.305Z,100902.80
2019-01-24T23:23:52.834Z,100901.55
2019-01-24T23:26:23.295Z,100905.84
2019-01-24T23:28:53.719Z,100905.38
2019-01-24T23:31:24.177Z,100907.16
2019-01-24T23:33:55.363Z,100907.18
2019-01-24T23:36:25.797Z,100900.29
2019-01-24T23:38:56.247Z,100897.69
2019-01-24T23:41:26.644Z,100899.41
2019-01-24T23:43:57.069Z,100899.42
2019-01-24T23:46:27.504Z,100892.52
2019-01-24T23:48:58.212Z,100904.15
2019-01-24T23:51:30.939Z,100904.57
2019-01-24T23:54:01.391Z,100912.36
2019-01-24T23:56:31.888Z,100907.18
2019-01-24T23:59:02.296Z,100904.60
